Tuluksak, Alaska
Current Conditions -  °F | °C
As of 5:56 PM on Sunday 21 Dec 2014 (Local Time) from PFKW Reporting Station
Clear Clear  
Wind Chill: -9°   Ceiling: Unl
Heat Index:   Visibility: 10mi
Dew Point: -2°   Wind: 5mph
Humidity: 87%   Direction: 340°NNW
Pressure: 29.54"   Gusts: NA
Location:  61.09°N, 160.98°W
Report Text: PFKW 220256Z AUTO 34004KT 10SM CLR M17/M19 A2954 RMK AO2 SLP005 T11721189 53028 FZRANO
Loading
Personal Weather Stations






























Interactive Weather Map New forecast layout! Learn more

10-Day Weather Forecast

Advertisements
Track Severe Weather on mobile